Time;durP1;ratioP1;P1;durP2;ratioP2;P2;SDS_P1;SDS_P2;PMS_P1;PMS_P2;Temp;Humidity;BMP_temperature;BMP_pressure;BME280_temperature;BME280_humidity;BME280_pressure;Samples;Min_cycle;Max_cycle;Signal;HPM_P1;HPM_P2
2023/11/14 00:00:05;;;;;;;17.98;2.70;;;;;;;9.26;100.00;99369.22;5695212;23;20052;-80
2023/11/14 00:05:22;;;;;;;19.63;2.50;;;;;;;9.30;100.00;99380.91;5338090;23;20036;-81
2023/11/14 00:13:53;;;;;;;18.55;3.15;;;;;;;9.35;100.00;99361.34;5572997;23;20094;-80
2023/11/14 00:16:26;;;;;;;17.58;3.03;;;;;;;9.40;100.00;99371.91;5218842;23;20056;-78
2023/11/14 00:18:52;;;;;;;18.23;3.35;;;;;;;9.43;100.00;99368.69;4916025;29;20675;-78
2023/11/14 00:21:18;;;;;;;25.00;3.15;;;;;;;9.47;100.00;99368.88;4893964;29;20043;-78
2023/11/14 00:23:44;;;;;;;19.33;3.22;;;;;;;9.48;100.00;99371.25;4905103;29;20112;-81
2023/11/14 00:26:11;;;;;;;29.15;3.83;;;;;;;9.45;100.00;99353.13;4901157;29;20119;-80
2023/11/14 00:28:38;;;;;;;20.55;3.70;;;;;;;9.46;100.00;99361.94;4888899;29;20044;-81
2023/11/14 00:31:04;;;;;;;23.40;3.45;;;;;;;9.45;100.00;99361.16;4888787;29;20044;-80
2023/11/14 00:33:30;;;;;;;;;;;;;;;9.46;100.00;99359.25;4873644;29;20565;-80
2023/11/14 00:35:56;;;;;;;12.77;2.58;;;;;;;9.50;100.00;99353.03;4912377;29;20449;-80
2023/11/14 00:38:22;;;;;;;22.23;2.83;;;;;;;9.56;100.00;99351.06;4884106;29;20052;-80
2023/11/14 00:40:48;;;;;;;;;;;;;;;9.56;100.00;99346.53;4895856;29;20041;-81
2023/11/14 00:43:18;;;;;;;19.45;2.97;;;;;;;9.53;100.00;99331.06;4898296;29;19943;-80
2023/11/14 00:45:43;;;;;;;19.58;2.80;;;;;;;9.53;100.00;99339.06;4893347;29;20049;-80
2023/11/14 00:48:10;;;;;;;21.90;3.20;;;;;;;9.56;100.00;99335.03;4895027;29;20100;-80
2023/11/14 00:50:35;;;;;;;18.77;2.58;;;;;;;9.61;100.00;99342.16;4899226;29;20067;-81
2023/11/14 00:56:03;;;;;;;20.88;2.58;;;;;;;9.52;100.00;99309.97;5147234;23;20056;-81
2023/11/14 00:58:31;;;;;;;21.55;3.13;;;;;;;9.56;100.00;99322.47;4920815;29;20044;-79
2023/11/14 01:15:49;;;;;;;26.20;3.05;;;;;;;9.64;100.00;99314.84;4933456;29;20031;-79
2023/11/14 01:18:15;;;;;;;17.52;2.90;;;;;;;9.58;100.00;99324.84;4951048;28;20038;-79
2023/11/14 01:32:45;;;;;;;24.25;4.55;;;;;;;9.25;100.00;99340.94;5955655;23;20033;-81
2023/11/14 01:35:12;;;;;;;19.95;2.88;;;;;;;9.28;100.00;99344.91;5220216;23;20052;-81
2023/11/14 01:37:38;;;;;;;33.42;4.00;;;;;;;9.20;100.00;99342.91;4878572;29;20013;-81
2023/11/14 01:40:06;;;;;;;26.60;3.10;;;;;;;9.20;100.00;99334.88;4890349;29;20578;-81
2023/11/14 01:42:32;;;;;;;25.83;3.38;;;;;;;9.15;100.00;99335.00;4880133;29;20037;-81
2023/11/14 01:45:00;;;;;;;19.60;2.53;;;;;;;9.20;100.00;99322.31;4868879;29;20037;-79
2023/11/14 01:47:29;;;;;;;18.65;2.75;;;;;;;9.23;100.00;99315.63;4865997;29;20088;-82
2023/11/14 01:49:55;;;;;;;20.65;2.50;;;;;;;9.23;100.00;99310.28;4935195;23;20056;-80
2023/11/14 01:52:22;;;;;;;16.27;2.95;;;;;;;9.24;100.00;99301.94;5227403;23;20018;-80
2023/11/14 01:54:52;;;;;;;21.15;2.58;;;;;;;9.32;100.00;99307.69;4906946;29;20467;-82
2023/11/14 01:57:29;;;;;;;22.52;3.97;;;;;;;9.38;100.00;99303.84;5060864;23;20024;-80
2023/11/14 01:59:56;;;;;;;19.70;3.25;;;;;;;9.39;100.00;99308.09;4879092;29;20139;-79
2023/11/14 02:02:26;;;;;;;18.23;2.65;;;;;;;9.41;100.00;99309.38;4891220;29;21003;-79
2023/11/14 02:04:53;;;;;;;18.90;2.58;;;;;;;9.44;100.00;99308.78;4932019;23;20103;-81
2023/11/14 02:07:52;;;;;;;17.50;2.90;;;;;;;9.46;100.00;99301.28;4946965;23;20028;31
2023/11/14 02:10:18;;;;;;;20.63;2.78;;;;;;;9.45;100.00;99294.34;5037957;23;20052;-81
2023/11/14 02:12:44;;;;;;;24.52;3.17;;;;;;;9.52;100.00;99294.75;4865102;29;20045;-79
2023/11/14 02:15:11;;;;;;;18.70;3.20;;;;;;;9.55;100.00;99282.66;4884853;29;20419;-80
2023/11/14 02:17:36;;;;;;;23.85;2.97;;;;;;;9.59;100.00;99275.63;4878023;29;20800;-81
2023/11/14 02:33:57;;;;;;;14.45;3.03;;;;;;;9.79;100.00;99261.06;5264728;23;20104;-80
2023/11/14 02:42:18;;;;;;;10.05;1.98;;;;;;;9.95;100.00;99275.66;5156470;23;20044;-80
2023/11/14 03:04:15;;;;;;;18.17;2.63;;;;;;;10.24;100.00;99266.53;5208794;23;20453;-80
2023/11/14 03:06:40;;;;;;;14.88;2.55;;;;;;;10.23;100.00;99271.09;4981883;23;20139;-80
2023/11/14 03:46:32;;;;;;;13.13;2.72;;;;;;;10.32;100.00;99239.81;5745450;23;20063;-80
2023/11/14 03:48:58;;;;;;;12.27;2.00;;;;;;;10.35;100.00;99249.91;4880804;29;20036;-80
2023/11/14 03:51:24;;;;;;;16.27;2.70;;;;;;;10.36;100.00;99256.03;4908761;29;20043;-80
2023/11/14 03:53:49;;;;;;;13.98;2.13;;;;;;;10.37;100.00;99257.66;4884464;29;20125;-81
2023/11/14 03:56:15;;;;;;;11.50;2.25;;;;;;;10.45;100.00;99254.25;4847468;29;20140;-80
2023/11/14 03:58:42;;;;;;;15.93;2.28;;;;;;;10.48;100.00;99253.63;4879903;29;20518;-80
2023/11/14 04:01:07;;;;;;;11.82;2.10;;;;;;;10.42;100.00;99243.34;4867769;29;20068;-81
2023/11/14 04:03:33;;;;;;;14.63;2.53;;;;;;;10.38;100.00;99243.97;4859053;29;20036;-80
2023/11/14 04:06:00;;;;;;;15.48;2.35;;;;;;;10.42;100.00;99236.09;4877049;29;20045;-80
2023/11/14 04:08:27;;;;;;;12.20;2.45;;;;;;;10.38;100.00;99245.84;4884461;29;20101;-80
2023/11/14 04:10:53;;;;;;;13.05;2.47;;;;;;;10.41;100.00;99237.19;4902563;29;20041;-81
2023/11/14 04:13:18;;;;;;;15.68;2.60;;;;;;;10.42;100.00;99238.00;4851936;29;20546;-80
2023/11/14 04:15:44;;;;;;;17.00;2.63;;;;;;;10.36;100.00;99229.28;4879462;29;20037;-81
2023/11/14 04:18:13;;;;;;;19.60;2.35;;;;;;;10.36;100.00;99231.97;4875078;29;20045;-80
2023/11/14 04:20:40;;;;;;;15.60;2.60;;;;;;;10.36;100.00;99240.00;4873250;29;20060;-81
2023/11/14 04:23:05;;;;;;;15.20;2.72;;;;;;;10.28;100.00;99227.34;4874288;29;20052;-81
2023/11/14 04:25:31;;;;;;;18.95;2.85;;;;;;;10.36;100.00;99234.63;4876109;29;20040;-79
2023/11/14 04:27:57;;;;;;;17.88;2.70;;;;;;;10.34;100.00;99237.63;4889110;29;20116;-81
2023/11/14 04:30:23;;;;;;;16.85;2.15;;;;;;;10.39;100.00;99248.22;4864262;29;20476;-81
2023/11/14 04:32:49;;;;;;;16.75;2.13;;;;;;;10.36;100.00;99218.59;4873632;29;20096;-81
2023/11/14 04:35:18;;;;;;;19.33;2.17;;;;;;;10.34;100.00;99236.84;4886923;29;20039;-80
2023/11/14 04:37:44;;;;;;;17.73;2.60;;;;;;;10.33;100.00;99225.34;4868003;29;20036;-81
2023/11/14 04:40:12;;;;;;;12.95;2.20;;;;;;;10.30;100.00;99231.31;4908623;29;20064;-81
2023/11/14 04:42:40;;;;;;;14.20;2.25;;;;;;;10.39;100.00;99247.44;4884318;29;20321;-80
2023/11/14 04:45:07;;;;;;;15.43;2.40;;;;;;;10.39;100.00;99250.88;4876144;29;20052;-81
2023/11/14 04:47:32;;;;;;;14.63;2.45;;;;;;;10.30;100.00;99233.22;4850757;29;20044;-81
2023/11/14 04:49:59;;;;;;;13.57;2.10;;;;;;;10.28;100.00;99222.00;4876887;29;20044;-80
2023/11/14 04:52:26;;;;;;;17.60;2.20;;;;;;;10.23;100.00;99241.66;4875749;29;20069;-82
2023/11/14 04:54:52;;;;;;;12.80;3.03;;;;;;;10.22;100.00;99265.97;4864503;29;20128;-80
2023/11/14 04:57:17;;;;;;;17.77;3.17;;;;;;;10.15;100.00;99260.25;4876913;29;20120;-80
2023/11/14 04:59:43;;;;;;;18.48;2.92;;;;;;;10.09;100.00;99270.28;4872366;29;20037;-80
2023/11/14 05:02:10;;;;;;;15.75;2.95;;;;;;;10.05;100.00;99266.66;4860951;29;20412;-80
2023/11/14 05:04:36;;;;;;;21.02;4.20;;;;;;;9.98;100.00;99277.75;4875885;29;20092;-78
2023/11/14 05:07:02;;;;;;;14.98;4.00;;;;;;;9.98;100.00;99272.41;4846509;29;20753;-80
2023/11/14 05:09:28;;;;;;;17.02;3.85;;;;;;;9.98;100.00;99268.94;4876174;29;20037;-79
2023/11/14 05:11:55;;;;;;;21.13;3.63;;;;;;;9.96;100.00;99261.22;4895282;29;20171;-79
2023/11/14 05:14:21;;;;;;;22.20;4.07;;;;;;;10.02;100.00;99251.97;4892742;29;20037;-80
2023/11/14 05:16:47;;;;;;;19.08;3.80;;;;;;;10.04;100.00;99265.84;4857774;29;20095;-79
2023/11/14 05:19:13;;;;;;;16.80;3.35;;;;;;;10.06;100.00;99265.56;4861879;29;20040;-80
2023/11/14 05:21:39;;;;;;;15.60;3.17;;;;;;;10.08;100.00;99271.38;4878108;29;20045;-80
2023/11/14 05:24:09;;;;;;;19.33;3.40;;;;;;;10.04;100.00;99273.88;4876205;29;20066;-80
2023/11/14 05:26:34;;;;;;;12.68;3.08;;;;;;;10.01;100.00;99293.19;4857677;29;20579;-79
2023/11/14 05:29:00;;;;;;;22.35;3.05;;;;;;;9.94;100.00;99287.47;4857909;29;20044;-79
2023/11/14 05:31:26;;;;;;;19.48;3.40;;;;;;;9.88;100.00;99287.88;4868180;29;20033;-79
2023/11/14 05:33:51;;;;;;;19.58;2.65;;;;;;;9.86;100.00;99290.84;4879669;29;20041;-79
2023/11/14 05:36:17;;;;;;;13.68;2.42;;;;;;;9.83;100.00;99288.78;4886097;29;20047;-80
2023/11/14 05:38:42;;;;;;;20.73;2.80;;;;;;;9.78;100.00;99283.53;4872662;29;20480;-80
2023/11/14 05:41:09;;;;;;;18.20;2.72;;;;;;;9.75;100.00;99286.78;4872540;29;20033;-78
2023/11/14 05:43:36;;;;;;;17.13;3.15;;;;;;;9.71;100.00;99289.28;4873111;29;20487;-80
2023/11/14 05:46:03;;;;;;;16.83;2.60;;;;;;;9.68;100.00;99273.81;4868396;29;20043;-79
2023/11/14 05:48:29;;;;;;;18.55;3.70;;;;;;;9.63;100.00;99267.81;4872301;29;20055;-79
2023/11/14 05:50:55;;;;;;;15.60;2.33;;;;;;;9.64;100.00;99261.38;4859332;29;20155;-80
2023/11/14 05:53:21;;;;;;;15.65;2.50;;;;;;;9.62;100.00;99268.88;4872727;29;20074;-79
2023/11/14 05:55:47;;;;;;;16.80;2.92;;;;;;;9.60;100.00;99271.06;4871529;29;20048;-79
2023/11/14 05:58:13;;;;;;;19.00;2.40;;;;;;;9.63;100.00;99281.19;4888412;29;20065;-79
2023/11/14 06:00:39;;;;;;;22.83;3.58;;;;;;;9.61;100.00;99272.66;4858422;29;20049;-79
2023/11/14 06:03:05;;;;;;;20.38;2.85;;;;;;;9.58;100.00;99290.88;4885733;29;20040;-78
2023/11/14 06:05:31;;;;;;;17.67;2.90;;;;;;;9.61;100.00;99304.72;4870316;29;20120;-78
2023/11/14 06:07:57;;;;;;;16.02;2.80;;;;;;;9.60;100.00;99305.81;4885721;29;20032;-79
2023/11/14 06:10:22;;;;;;;17.48;2.67;;;;;;;9.55;100.00;99307.53;4870669;29;20044;-79
2023/11/14 06:12:48;;;;;;;18.98;2.60;;;;;;;9.52;100.00;99310.78;4870807;29;20701;-79
2023/11/14 06:15:14;;;;;;;19.52;2.67;;;;;;;9.49;100.00;99287.31;4855633;29;20037;-79
2023/11/14 06:17:40;;;;;;;14.73;2.85;;;;;;;9.44;100.00;99292.75;4873865;29;20135;-79
2023/11/14 06:20:09;;;;;;;15.88;2.63;;;;;;;9.35;100.00;99272.38;4869173;29;20041;-79
2023/11/14 06:22:35;;;;;;;13.30;2.80;;;;;;;9.17;100.00;99327.47;4854129;29;20546;-78
2023/11/14 06:25:03;;;;;;;14.80;2.40;;;;;;;9.11;100.00;99353.47;4854231;29;20033;-78
2023/11/14 06:27:29;;;;;;;24.98;4.10;;;;;;;9.10;100.00;99348.44;4870979;29;20045;-79
2023/11/14 06:29:56;;;;;;;;;;;;;;;9.09;100.00;99347.63;4859213;29;20068;-78
2023/11/14 06:32:24;;;;;;;18.50;2.35;;;;;;;9.09;100.00;99358.31;4872391;29;19919;-80
2023/11/14 06:34:50;;;;;;;14.38;2.45;;;;;;;9.10;100.00;99367.13;4874908;29;20041;-78
2023/11/14 06:37:16;;;;;;;15.45;2.58;;;;;;;9.14;100.00;99360.09;4869030;29;20048;-79
2023/11/14 06:39:42;;;;;;;15.32;3.03;;;;;;;9.12;100.00;99364.94;4856617;29;20033;-79
2023/11/14 06:42:08;;;;;;;14.90;2.40;;;;;;;9.15;100.00;99348.34;4867092;29;20049;-79
2023/11/14 06:44:36;;;;;;;11.52;2.33;;;;;;;9.15;100.00;99356.38;4866769;29;20041;-78
2023/11/14 06:47:03;;;;;;;15.45;2.50;;;;;;;9.18;100.00;99371.78;4856458;29;20036;-79
2023/11/14 06:49:28;;;;;;;12.95;2.33;;;;;;;9.16;100.00;99369.41;4873202;29;20660;-79
2023/11/14 06:51:54;;;;;;;22.95;2.80;;;;;;;9.21;100.00;99360.50;4870426;29;20778;-79
2023/11/14 06:54:20;;;;;;;14.23;3.25;;;;;;;9.23;100.00;99371.72;4856374;29;20526;-79
2023/11/14 06:56:45;;;;;;;18.95;2.80;;;;;;;9.22;100.00;99367.47;4887407;29;20068;-80
2023/11/14 06:59:11;;;;;;;18.75;3.47;;;;;;;9.22;100.00;99365.56;4854621;29;20033;-79
2023/11/14 07:01:37;;;;;;;15.43;2.92;;;;;;;9.27;100.00;99364.66;4878615;29;20132;-79
2023/11/14 07:04:03;;;;;;;15.98;2.45;;;;;;;9.26;100.00;99360.41;4891386;29;20116;-79
2023/11/14 07:06:29;;;;;;;13.02;2.42;;;;;;;9.28;100.00;99371.63;4883829;29;20135;-80
2023/11/14 07:08:56;;;;;;;;;;;;;;;9.32;100.00;99385.19;4873248;29;20487;-79
2023/11/14 07:11:22;;;;;;;15.65;2.08;;;;;;;9.31;100.00;99397.75;4858649;29;19947;-79
2023/11/14 07:13:48;;;;;;;15.77;2.20;;;;;;;9.28;100.00;99398.34;4848478;29;20039;-79
2023/11/14 07:16:14;;;;;;;17.80;2.35;;;;;;;9.26;100.00;99411.19;4857978;29;20043;-80
2023/11/14 07:18:40;;;;;;;33.58;3.65;;;;;;;9.25;100.00;99420.28;4861324;29;20467;-79
2023/11/14 07:21:06;;;;;;;18.35;2.97;;;;;;;9.22;100.00;99411.00;4891620;29;20037;-79
2023/11/14 07:23:32;;;;;;;;;;;;;;;9.24;100.00;99408.00;4862148;29;20041;-79
2023/11/14 07:25:57;;;;;;;19.70;3.03;;;;;;;9.22;100.00;99404.84;4900102;29;19981;-79
2023/11/14 07:28:23;;;;;;;17.33;2.53;;;;;;;9.25;100.00;99409.59;4885287;29;20041;-79
2023/11/14 07:30:50;;;;;;;16.02;2.28;;;;;;;9.26;100.00;99397.81;4883713;29;20060;-79
2023/11/14 07:33:16;;;;;;;17.80;2.38;;;;;;;9.25;100.00;99406.94;4866857;29;20045;-78
2023/11/14 07:35:42;;;;;;;;;;;;;;;9.28;100.00;99398.34;4868645;29;20078;-79
2023/11/14 07:38:08;;;;;;;14.45;2.80;;;;;;;9.32;100.00;99396.66;4876117;29;19916;-80
2023/11/14 07:40:34;;;;;;;17.98;2.92;;;;;;;9.36;100.00;99400.34;4859819;29;20518;-79
2023/11/14 07:43:02;;;;;;;11.75;2.53;;;;;;;9.39;100.00;99410.41;4878063;29;20071;-80
2023/11/14 07:45:31;;;;;;;17.55;2.35;;;;;;;9.41;100.00;99399.44;4879651;29;20029;-80
2023/11/14 07:47:58;;;;;;;13.82;2.60;;;;;;;9.46;100.00;99405.47;4893709;29;20076;-79
2023/11/14 07:50:24;;;;;;;16.75;2.33;;;;;;;9.50;100.00;99411.84;4878154;29;20040;-80
2023/11/14 07:52:50;;;;;;;12.13;1.73;;;;;;;9.52;100.00;99400.84;4846498;29;20049;-79
2023/11/14 07:55:16;;;;;;;13.27;1.80;;;;;;;9.57;100.00;99412.25;4874682;29;20088;-78
2023/11/14 07:57:42;;;;;;;15.48;2.78;;;;;;;9.58;100.00;99419.16;4872928;29;20144;-79
2023/11/14 08:00:08;;;;;;;;;;;;;;;9.62;100.00;99413.22;4878642;29;20041;-79
2023/11/14 08:02:40;;;;;;;18.65;2.50;;;;;;;9.60;100.00;99412.72;4894309;29;20301;-80
2023/11/14 08:05:08;;;;;;;18.40;2.90;;;;;;;9.60;100.00;99423.44;4844118;29;20040;-80
2023/11/14 08:07:35;;;;;;;15.60;2.72;;;;;;;9.58;100.00;99419.16;4873696;29;20029;-79
2023/11/14 08:10:01;;;;;;;20.38;3.40;;;;;;;9.58;100.00;99421.84;4864232;29;20048;-79
2023/11/14 08:12:28;;;;;;;19.40;2.20;;;;;;;9.58;100.00;99423.72;4873092;29;20126;-79
2023/11/14 08:14:54;;;;;;;12.88;2.20;;;;;;;9.59;100.00;99457.38;4878107;29;20058;-79
2023/11/14 08:17:20;;;;;;;;;;;;;;;9.64;100.00;99437.78;4883442;29;20044;-81
2023/11/14 08:19:46;;;;;;;15.60;2.10;;;;;;;9.68;100.00;99433.44;4878129;29;19972;-79
2023/11/14 08:22:12;;;;;;;17.13;2.50;;;;;;;9.69;100.00;99435.03;4876071;29;20032;-79
2023/11/14 08:24:38;;;;;;;19.73;3.10;;;;;;;9.75;100.00;99444.53;4849851;29;20064;-80
2023/11/14 08:27:05;;;;;;;15.32;2.20;;;;;;;9.81;100.00;99443.34;4863930;29;20061;-80
2023/11/14 08:29:32;;;;;;;17.05;2.50;;;;;;;9.84;100.00;99434.75;4844714;29;20052;-79
2023/11/14 08:31:58;;;;;;;18.75;2.63;;;;;;;9.82;100.00;99448.44;4863542;29;20495;-80
2023/11/14 08:34:24;;;;;;;22.23;2.88;;;;;;;9.89;100.00;99452.56;4860847;29;20041;-80
2023/11/14 08:36:50;;;;;;;18.33;2.40;;;;;;;9.95;100.00;99427.31;4869092;29;20045;-81
2023/11/14 08:39:16;;;;;;;15.43;2.20;;;;;;;9.95;100.00;99436.13;4866414;29;20556;-80
2023/11/14 08:41:42;;;;;;;14.45;2.35;;;;;;;10.02;100.00;99460.59;4860772;29;20041;-79
2023/11/14 08:44:08;;;;;;;13.13;1.90;;;;;;;10.00;100.00;99446.72;4891962;29;20380;-79
2023/11/14 08:46:34;;;;;;;15.90;2.42;;;;;;;10.03;100.00;99450.72;4862950;29;20048;-79
2023/11/14 08:49:02;;;;;;;;;;;;;;;10.05;100.00;99454.66;4867056;29;20131;-79
2023/11/14 08:51:27;;;;;;;15.43;2.50;;;;;;;10.07;100.00;99463.19;4857216;29;20370;-79
2023/11/14 08:53:53;;;;;;;16.35;1.95;;;;;;;10.06;100.00;99456.25;4879507;29;20037;-80
2023/11/14 08:56:19;;;;;;;13.88;2.15;;;;;;;10.10;100.00;99462.59;4878485;29;20100;-79
2023/11/14 08:58:45;;;;;;;;;;;;;;;10.17;100.00;99461.41;4859006;29;20034;-81
2023/11/14 09:01:11;;;;;;;10.75;2.03;;;;;;;10.21;100.00;99476.56;4897969;29;20007;-79
2023/11/14 09:03:37;;;;;;;9.15;2.17;;;;;;;10.25;100.00;99472.25;4859825;29;20041;-79
2023/11/14 09:06:04;;;;;;;11.65;1.75;;;;;;;10.26;100.00;99468.47;4884169;29;20065;-82
2023/11/14 09:08:29;;;;;;;14.07;2.10;;;;;;;10.30;100.00;99482.06;4870482;29;20041;-80
2023/11/14 09:10:55;;;;;;;10.30;1.55;;;;;;;10.30;100.00;99487.41;4884740;29;20041;-81
2023/11/14 09:13:40;;;;;;;12.75;2.20;;;;;;;10.33;100.00;99487.59;4894261;29;20072;-78
2023/11/14 09:16:09;;;;;;;12.82;1.85;;;;;;;10.33;100.00;99502.84;4882858;29;20215;-79
2023/11/14 09:18:36;;;;;;;13.75;2.42;;;;;;;10.40;100.00;99503.25;4846698;29;20037;-78
2023/11/14 09:21:02;;;;;;;10.52;1.80;;;;;;;10.40;100.00;99505.94;4874721;29;20040;-79
2023/11/14 09:23:28;;;;;;;9.80;1.92;;;;;;;10.37;100.00;99501.97;4871750;29;20092;-79
2023/11/14 09:25:54;;;;;;;12.50;1.90;;;;;;;10.37;100.00;99509.22;4879907;29;20073;-79
2023/11/14 09:28:20;;;;;;;16.98;2.03;;;;;;;10.32;100.00;99512.78;4858819;29;20430;-78
2023/11/14 09:30:46;;;;;;;14.40;2.75;;;;;;;10.36;100.00;99524.47;4872852;29;20571;-79
2023/11/14 09:33:13;;;;;;;14.63;2.25;;;;;;;10.38;100.00;99533.00;4885484;29;20041;-79
2023/11/14 09:35:38;;;;;;;11.43;2.25;;;;;;;10.38;100.00;99537.56;4867461;29;20116;-79
2023/11/14 09:38:04;;;;;;;13.15;2.28;;;;;;;10.37;100.00;99525.25;4868539;29;20079;-78
2023/11/14 09:40:30;;;;;;;14.15;2.28;;;;;;;10.36;100.00;99529.00;4867366;29;20045;-78
2023/11/14 09:42:56;;;;;;;8.45;1.98;;;;;;;10.38;100.00;99518.81;4886473;29;20044;-76
2023/11/14 09:45:24;;;;;;;15.73;2.42;;;;;;;10.41;100.00;99533.47;4868683;29;20123;-77
2023/11/14 09:47:50;;;;;;;11.93;2.20;;;;;;;10.36;100.00;99543.22;4840446;29;20541;-79
2023/11/14 09:50:17;;;;;;;12.30;1.80;;;;;;;10.38;100.00;99545.59;4884273;29;20123;-79
2023/11/14 09:52:44;;;;;;;7.13;2.00;;;;;;;10.37;100.00;99552.03;4867992;29;20065;-80
2023/11/14 09:55:11;;;;;;;10.57;1.98;;;;;;;10.38;100.00;99559.75;4868005;29;20040;-79
2023/11/14 09:57:38;;;;;;;12.30;1.85;;;;;;;10.44;100.00;99563.13;4871967;29;20076;-79
2023/11/14 10:00:11;;;;;;;13.82;2.33;;;;;;;10.50;100.00;99561.94;4857297;29;20858;-78
2023/11/14 10:02:40;;;;;;;11.93;2.22;;;;;;;10.57;100.00;99559.66;4868642;29;20075;-79
2023/11/14 10:05:07;;;;;;;11.30;1.77;;;;;;;10.65;100.00;99563.53;4858744;29;20072;-79
2023/11/14 10:07:35;;;;;;;13.13;2.28;;;;;;;10.68;100.00;99567.47;4869673;29;20530;-80
2023/11/14 10:10:02;;;;;;;11.85;2.33;;;;;;;10.71;100.00;99553.50;4884672;29;20045;-78
2023/11/14 10:12:36;;;;;;;13.00;2.03;;;;;;;10.75;100.00;99562.50;4847972;29;20563;-76
2023/11/14 10:15:03;;;;;;;14.35;2.63;;;;;;;10.79;100.00;99569.66;4868892;29;20044;-75
2023/11/14 10:17:41;;;;;;;14.18;2.45;;;;;;;10.88;100.00;99567.06;4849117;29;20715;-77
2023/11/14 10:20:09;;;;;;;12.18;2.10;;;;;;;10.91;100.00;99563.81;4872410;29;20541;-77
2023/11/14 10:22:35;;;;;;;9.20;1.88;;;;;;;10.89;100.00;99553.38;4875137;29;20406;-79
2023/11/14 10:25:02;;;;;;;10.65;1.77;;;;;;;10.83;100.00;99569.84;4873124;29;20040;-79
2023/11/14 10:27:29;;;;;;;11.27;2.05;;;;;;;10.72;100.00;99579.19;4871511;29;20036;-78
2023/11/14 10:29:55;;;;;;;12.93;2.50;;;;;;;10.64;100.00;99581.47;4852666;29;20674;-79
2023/11/14 10:32:22;;;;;;;;;;;;;;;10.66;100.00;99579.28;4868551;29;20068;-78
2023/11/14 10:34:48;;;;;;;15.00;2.45;;;;;;;10.60;100.00;99572.44;4870878;29;19962;-79
2023/11/14 10:37:31;;;;;;;11.20;2.17;;;;;;;10.59;100.00;99576.22;4886252;29;20060;-79
2023/11/14 10:39:57;;;;;;;11.60;2.35;;;;;;;10.54;100.00;99565.59;4834028;29;20589;-75
2023/11/14 10:42:24;;;;;;;10.20;2.00;;;;;;;10.55;100.00;99572.53;4868873;29;20123;-77
2023/11/14 10:44:57;;;;;;;15.38;2.88;;;;;;;10.56;100.00;99571.44;4856333;29;20138;-77
2023/11/14 10:47:36;;;;;;;14.90;2.03;;;;;;;10.58;100.00;99573.84;4851133;29;20055;-77
2023/11/14 10:50:04;;;;;;;11.70;1.73;;;;;;;10.56;100.00;99576.78;4875047;29;20227;-77
2023/11/14 10:52:33;;;;;;;12.02;2.38;;;;;;;10.52;100.00;99581.16;4858857;29;20045;-77
2023/11/14 10:55:01;;;;;;;13.93;2.20;;;;;;;10.54;100.00;99583.53;4873590;29;20144;-78
2023/11/14 10:57:28;;;;;;;14.63;2.45;;;;;;;10.52;100.00;99602.59;4876066;29;20091;-77
2023/11/14 10:59:57;;;;;;;8.65;1.67;;;;;;;10.46;100.00;99576.22;4857836;29;20033;-77
2023/11/14 11:02:32;;;;;;;11.15;2.30;;;;;;;10.39;100.00;99581.97;4860329;29;20160;-77
2023/11/14 11:05:01;;;;;;;10.30;2.78;;;;;;;10.37;100.00;99578.78;4876508;29;20065;-76
2023/11/14 11:07:28;;;;;;;9.52;1.40;;;;;;;10.36;100.00;99587.88;4855949;29;20041;-76
2023/11/14 11:09:54;;;;;;;10.07;2.28;;;;;;;10.30;100.00;99578.38;4889608;29;20391;-76
2023/11/14 11:12:21;;;;;;;13.40;2.28;;;;;;;10.26;100.00;99585.41;4873606;29;20391;-76
2023/11/14 11:14:49;;;;;;;10.30;2.83;;;;;;;10.21;100.00;99585.47;4875716;29;20033;-77
2023/11/14 11:17:45;;;;;;;9.40;1.98;;;;;;;10.18;100.00;99586.06;4878153;29;20399;-76
2023/11/14 11:20:23;;;;;;;11.15;1.83;;;;;;;10.21;100.00;99590.81;4886587;29;20362;-77
2023/11/14 11:23:03;;;;;;;11.73;2.53;;;;;;;10.22;100.00;99597.75;4862483;29;20056;-77
2023/11/14 11:25:32;;;;;;;10.88;1.75;;;;;;;10.20;100.00;99599.94;4869012;29;20049;-76
2023/11/14 11:27:58;;;;;;;13.25;2.53;;;;;;;10.15;100.00;99597.34;4890976;29;20048;-77
2023/11/14 11:30:26;;;;;;;11.02;2.00;;;;;;;10.12;100.00;99596.84;4873620;29;20068;-80
2023/11/14 11:32:55;;;;;;;12.38;2.50;;;;;;;10.13;100.00;99601.09;4860268;29;20132;-78
2023/11/14 11:35:26;;;;;;;11.57;2.05;;;;;;;10.12;100.00;99609.44;4860268;29;20037;-77
2023/11/14 11:37:56;;;;;;;10.20;2.50;;;;;;;10.09;100.00;99610.81;5039111;23;20056;-79
2023/11/14 11:40:27;;;;;;;12.98;2.25;;;;;;;10.10;100.00;99617.75;4909774;29;20604;-78
2023/11/14 11:43:14;;;;;;;12.70;3.05;;;;;;;10.10;100.00;99612.41;4907201;29;20036;-78
2023/11/14 11:45:41;;;;;;;11.65;1.80;;;;;;;10.09;100.00;99608.16;4894029;29;20039;-79
2023/11/14 11:48:32;;;;;;;14.82;2.35;;;;;;;10.09;100.00;99599.31;4874800;29;20043;-78
2023/11/14 11:51:26;;;;;;;14.00;2.50;;;;;;;10.08;100.00;99603.06;4913155;29;20521;-78
2023/11/14 11:53:52;;;;;;;16.73;2.42;;;;;;;10.07;100.00;99596.13;4871890;29;20083;-78
2023/11/14 11:56:36;;;;;;;12.40;2.13;;;;;;;10.07;100.00;99601.50;4904797;29;20040;-78
2023/11/14 11:59:03;;;;;;;;;;;;;;;10.04;100.00;99608.22;4910386;29;20040;-75
2023/11/14 12:01:29;;;;;;;15.80;2.63;;;;;;;10.05;100.00;99609.81;4906866;29;19974;-78
2023/11/14 12:04:00;;;;;;;12.82;2.50;;;;;;;10.05;100.00;99609.03;4891964;29;20050;-77
2023/11/14 12:06:26;;;;;;;10.32;2.20;;;;;;;10.05;100.00;99612.47;4889769;29;20067;-80
2023/11/14 12:08:52;;;;;;;13.80;2.22;;;;;;;10.07;100.00;99604.94;4873356;29;20071;-78
2023/11/14 12:11:18;;;;;;;10.57;2.05;;;;;;;10.07;100.00;99607.63;4906760;29;20095;-81
2023/11/14 12:13:53;;;;;;;11.77;2.40;;;;;;;10.07;100.00;99614.84;4876469;29;20518;-78
2023/11/14 12:16:21;;;;;;;11.88;2.10;;;;;;;10.08;100.00;99619.13;4907353;29;20045;-79
2023/11/14 12:18:48;;;;;;;12.52;2.08;;;;;;;10.06;100.00;99627.44;4891030;29;20024;-77
2023/11/14 12:21:16;;;;;;;10.00;2.03;;;;;;;10.09;100.00;99626.88;4891957;29;20051;-78
2023/11/14 12:23:42;;;;;;;14.25;2.28;;;;;;;10.05;100.00;99619.72;4893613;29;20059;-76
2023/11/14 12:26:08;;;;;;;12.25;2.13;;;;;;;10.08;100.00;99629.81;4893868;29;20126;-77
2023/11/14 12:28:43;;;;;;;8.60;1.70;;;;;;;10.24;100.00;99635.75;4921592;29;20143;-77
2023/11/14 12:31:11;;;;;;;11.25;1.88;;;;;;;10.37;100.00;99632.31;4893998;29;20048;-77
2023/11/14 12:33:50;;;;;;;10.27;1.55;;;;;;;10.44;100.00;99630.03;4910028;29;20063;-77
2023/11/14 12:36:29;;;;;;;9.05;1.92;;;;;;;10.44;100.00;99622.03;4902836;29;20561;-77
2023/11/14 12:39:11;;;;;;;9.45;2.25;;;;;;;10.45;100.00;99612.09;4903994;29;20529;-77
2023/11/14 12:41:48;;;;;;;11.13;2.00;;;;;;;10.44;100.00;99629.25;4889528;29;20028;-77
2023/11/14 12:44:15;;;;;;;9.32;1.98;;;;;;;10.45;100.00;99628.16;4904668;29;20051;-78
2023/11/14 12:46:43;;;;;;;10.45;2.10;;;;;;;10.49;100.00;99629.94;4889441;29;20490;-77
2023/11/14 12:49:15;;;;;;;10.70;1.77;;;;;;;10.54;100.00;99608.44;4898298;29;20070;-80
2023/11/14 12:52:02;;;;;;;7.95;2.00;;;;;;;10.57;100.00;99615.88;4909074;29;20115;-78
2023/11/14 12:54:28;;;;;;;12.82;1.75;;;;;;;10.61;100.00;99616.06;4891547;29;20048;-77
2023/11/14 12:56:54;;;;;;;13.15;2.40;;;;;;;10.77;100.00;99619.25;4893357;29;20040;-77
2023/11/14 12:59:20;;;;;;;19.40;3.78;;;;;;;10.81;100.00;99615.69;4902954;29;20068;-78
2023/11/14 13:01:51;;;;;;;11.15;3.17;;;;;;;10.88;100.00;99616.06;4892203;29;20172;-77
2023/11/14 13:04:18;;;;;;;12.20;2.35;;;;;;;10.85;100.00;99621.25;4863546;29;20130;-79
2023/11/14 13:06:47;;;;;;;7.18;2.20;;;;;;;10.94;100.00;99601.47;4896806;29;20187;-79
2023/11/14 13:09:15;;;;;;;10.27;2.00;;;;;;;11.15;100.00;99595.69;4873052;29;20040;-80
2023/11/14 13:11:42;;;;;;;12.35;1.85;;;;;;;11.17;100.00;99602.34;4892552;29;20123;-79
2023/11/14 13:14:08;;;;;;;9.20;1.90;;;;;;;11.24;100.00;99590.41;4878506;29;20083;-79
2023/11/14 13:16:36;;;;;;;16.17;2.47;;;;;;;11.22;100.00;99593.41;4891789;29;20063;-79
2023/11/14 13:19:03;;;;;;;12.95;2.42;;;;;;;11.36;100.00;99604.09;4926063;29;20079;-80
2023/11/14 13:21:29;;;;;;;14.13;2.30;;;;;;;11.35;100.00;99605.97;4906019;29;20028;-79